Terminal Aerodrome Forecast
Issued by NWS North Platte, NE

Home | Current Version | Previous Version | Graphics & Text | Print | Product List | Glossary On
Versions: 1 2 3 4 5 6 7 8 9 10 11 12 13 14 15 16
377
FTUS43 KLBF 201120
TAFVTN
TAF
KVTN 201120Z 2012/2112 23005KT P6SM FEW100 BKN150
     FM201400 25009KT P6SM FEW250
     FM202300 20009KT P6SM SKC
     FM210200 17008KT P6SM FEW250
     FM210600 17012KT P6SM FEW250 WS020/18040KT
     FM211000 16009KT P6SM FEW250 WS020/18050KT=

USA.gov is the U.S. government's official web portal to all federal, state and local government web resources and services.